Extreme weather reports worldwide

Atmospheric pressure

Low pressure

Station
 
Location
 
Name
 
Wind
Knots
Gust
Knots
Vis
SM
Temp/Dew
C
Baro
inHg
METAR
 
TNM SCRM Isla Rey Jorge, AQ Teniente Rodolfo Marsh Martin Base 15 6.21 0/0 28.76 SCRM 011300Z 05015KT 9999 -SHSN OVC010 M00/M00 Q0974 NOSIG
NZCM 6 6.21 -16/-27 29.05 NZCM 011255Z AUTO 18006KT 9999 CLR M16/M28 A2905 RMK AO2 PK WND 13029/1212 SLP844 T11641277 $
SKZ OPSK Mirpur Khas, PK Sukkur Airport 6 2.49 41/27 29.29 OPSK 011300Z 18006KT 4000 HZ FEW200 41/27 Q0992 NOSIG
USH SAWH Ushuahia, AR Malvinas Argentinas Airport 3 6.21 5/0 29.32 SAWH 011300Z 29003KT 9999 FEW040 05/M00 Q0993
MUX OPMT Multan, PK Multan International Airport 8 3.11 38/25 29.32 OPMT 011300Z 27008KT 5000 HZ SCT040 38/25 Q0993 NOSIG

Station
 
Location
 
Name
 
Wind
Knots
Gust
Knots
Vis
SM
Temp/Dew
C
Baro
inHg
METAR
 
CWZZ 26 31 / 29.34 CWZZ 011300Z AUTO 01026G31KT ////SM SCT002 SCT017 02/// A2934
KQEY 1 6.21 24/24 29.35 KQEY 011310Z AUTO 14001KT 9999 SCT006 BKN060 BKN160 24/24 A2935 RMK A02 TSNO
JSK OIZJ Jask, IR Jask Airport 4 4.97 38/34 29.35 OIZJ 011300Z 19004KT 8000 NSC 38/34 Q0994
BND OIKB Bandar Abbas, IR Bandar Abbas International Airport 14 2.17 38/26 29.35 OIKB 011300Z 21014KT 3500 HZ NSC 38/26 Q0994 A2937 NOSIG
OHS OOSH Sohar, OM Sohar Airport 7 38/26 29.35 OOSH 011250Z AUTO 07007KT //// ////// 38/26 Q0994 RMK 0991
KTT EFKT Kittilä, FI Kittilä Airport 5 6.21 15/13 29.35 EFKT 011250Z AUTO 22005KT 180V250 9999 +TSRA FEW020 SCT025 //////CB 15/13 Q0994
IVL EFIV Ivalo, FI Ivalo Airport 4 6.21 17/12 29.35 EFIV 011250Z AUTO 18004KT 140V220 9999 SCT028 17/12 Q0994
LKO VILK Lucknow, IN Chaudhary Charan Singh International Airport 8 1.86 28/26 29.38 VILK 011300Z 18008KT 3000 BR SCT010 SCT018 FEW030CB BKN090 28/26 Q0995 NOSIG
BSR ORMM Basrah, IQ Basrah International Airport 10 6.21 47/5 29.38 ORMM 011300Z 35010KT CAVOK 47/05 Q0995 NOSIG
FJR OMFJ AE Fujairah International Airport 6 2.49 36/29 29.38 OMFJ 011300Z 10006KT 060V150 4000 HZ NSC 36/29 Q0995 A2940
OIKQ IR Dayrestan Airport 16 3.11 36/31 29.38 OIKQ 011300Z 24016KT 5000 HZ NSC 36/31 Q0995 NOSIG
LVP OIBV IR Lavan Island Airport 6 6.21 38/26 29.38 OIBV 011300Z 29006KT 9999 FEW040CB 38/26 Q0995
PGU OIBP Asalouyeh, IR Persian Gulf International Airport 10 6.21 40/21 29.38 OIBP 011300Z 28010KT CAVOK 40/21 Q0995 A2939
BDH OIBL Bandar Lengeh, IR Bandar Lengeh Airport 8 3.11 38/25 29.38 OIBL 011300Z 27008KT 5000 HZ NSC 38/25 Q0995
AEU OIBA Abu Musa, IR Abu Musa Island Airport 10 4.35 37/28 29.38 OIBA 011300Z 27010KT 7000 NSC 37/28 Q0995
AWZ OIAW Ahwaz, IR Ahwaz Airport 8 6.21 47/10 29.38 OIAW 011300Z 23008KT CAVOK 47/10 Q0995
MRX OIAM IR Mahshahr Airport 8 6.21 42/23 29.38 OIAM 011300Z 18008KT CAVOK 42/23 Q0995
ABD OIAA Abadan, IR Abadan Airport 6 6.21 48/5 29.38 OIAA 011300Z 30006KT CAVOK 48/05 Q0995
DHA OEDR SA King Abdulaziz Air Base 12 6.21 41/23 29.38 OEDR 011300Z 05012KT CAVOK 41/23 Q0995 NOSIG
DMM OEDF Ad Dammam, SA King Fahd International Airport 15 6.21 44/18 29.38 OEDF 011300Z 06015KT CAVOK 44/18 Q0995 NOSIG
LYP OPFA Faisalabad, PK Faisalabad International Airport 4 2.49 35/27 29.38 OPFA 011255Z 31004KT 4000 FU FEW040 35/27 Q0995 NOSIG
MCT OOMS Muscat, OM Muscat International Airport 7 4.97 39/21 29.38 OOMS 011250Z 06007KT 8000 FEW030 39/21 Q0995 NOSIG
PJA ESUP SE Pajala Airport 9 6.21 13/10 29.38 ESUP 011250Z AUTO 29009KT 260V330 9999 ///////// 13/10 Q0995
LLA ESPA Luleå, SE Luleå Airport 8 6.21 19/9 29.38 ESPA 011250Z 30008KT 9999 BKN044 BKN054 19/09 Q0995
RVN EFRO Rovaniemi, FI Rovaniemi Airport 7 6.21 17/14 29.38 EFRO 011250Z AUTO 22007KT 190V250 9999 VCSH //////CB 17/14 Q0995
OUL EFOU Oulu / Oulunsalo, FI Oulu Airport 2 6.21 17/15 29.38 EFOU 011250Z AUTO VRB02KT 9999 -SHRA FEW032 //////CB 17/15 Q0995 RESHRA
KOK EFKK Kokkola / Kruunupyy, FI Kokkola-Pietarsaari Airport 3 6.21 16/15 29.38 EFKK 011250Z AUTO 02003KT 360V080 9999 SHRA //////CB 16/15 Q0995
KEM EFKE Kemi / Tornio, FI Kemi-Tornio Airport 9 6.21 19/14 29.38 EFKE 011250Z AUTO 22009KT CAVOK 19/14 Q0995
ENF EFET Enontekio, FI Enontekio Airport 12 6.21 9/8 29.38 EFET 011250Z AUTO 35012KT 9999 BKN008 OVC026 09/08 Q0995
ATQ VIAR Amritsar, IN Sri Guru Ram Dass Jee International Airport 4 3.11 34/26 29.41 VIAR 011300Z 20004KT 5000 HZ SCT030 SCT090 34/26 Q0996 NOSIG
PAT VEPT Patna, IN Lok Nayak Jayaprakash Airport 4 2.49 30/22 29.41 VEPT 011300Z 18004KT 4000 HZ SCT018 SCT100 30/22 Q0996 NOSIG
VEBN 4 2.17 28/25 29.41 VEBN 011300Z 18004KT 3500 BR SCT020 BKN080 28/25 Q0996 BECMG 3000 BR
DOH OTHH Doha, QA Hamad International Airport 8 6.21 40/22 29.41 OTHH 011300Z 11008KT CAVOK 40/22 Q0996 NOSIG
DIA OTBD Doha, QA Doha International Airport 8 6.21 41/21 29.41 OTBD 011300Z 10008KT CAVOK 41/21 Q0996 NOSIG
BGW ORBI Baghdad, IQ Baghdad International Airport 6 6.21 46/9 29.41 ORBI 011300Z 34006KT 300V010 CAVOK 46/09 Q0996 NOSIG
SHJ OMSJ Sharjah, AE Sharjah International Airport 13 6.21 37/25 29.41 OMSJ 011300Z 29013KT CAVOK 37/25 Q0996 NOSIG
RKT OMRK Ras Al Khaimah, AE Ras Al Khaimah International Airport 9 4.97 38/26 29.41 OMRK 011300Z 31009KT 8000 NSC 38/26 Q0996 A2943
DXB OMDB Dubai, AE Dubai International Airport 11 6.21 39/24 29.41 OMDB 011300Z 29011KT 260V330 CAVOK 39/24 Q0996 NOSIG
AZI OMAD AE Bateen Airport 10 6.21 40/21 29.41 OMAD 011300Z 33010KT CAVOK 40/21 Q0996 NOSIG
AUH OMAA Abu Dhabi, AE Abu Dhabi International Airport 12 6.21 42/12 29.41 OMAA 011300Z 34012KT CAVOK 42/12 Q0996 NOSIG
KWI OKBK Kuwait City, KW Kuwait International Airport 16 4.97 46/6 29.41 OKBK 011300Z 13016KT 8000 NSC 46/06 Q0996 NOSIG
SXI OIBS IR Sirri Island Airport 10 3.11 37/29 29.41 OIBS 011300Z 26010KT 5000 HZ NSC 37/29 Q0996
KHK OIBQ IR Khark Island Airport 6 6.21 39/28 29.41 OIBQ 011300Z 24006KT CAVOK 39/28 Q0996
KIH OIBK Kish Island, IR Kish International Airport 10 4.35 37/28 29.41 OIBK 011300Z 28010KT 7000 NSC 37/28 Q0996 NOSIG
OIBH IR Bastak Airport 14 6.21 40/24 29.41 OIBH 011300Z 21014KT CAVOK 40/24 Q0996 A2942

High pressure

Station
 
Location
 
Name
 
Wind
Knots
Gust
Knots
Vis
SM
Temp/Dew
C
Baro
inHg
METAR
 
KMYP 18 0.25 6/5 30.85 KMYP 011255Z AUTO 07018KT M1/4SM FG OVC001 06/05 A3085 RMK AO2
K0CO 17 23 10 2/-5 30.81 K0CO 011315Z AUTO 14017G23KT 10SM SCT026 SCT034 OVC042 02/M05 A3081 RMK AO2
KCPW 0 10 6/6 30.79 KCPW 011255Z AUTO 00000KT 10SM SCT035 OVC090 06/06 A3079 RMK AO2
KCCU 0 10 9/6 30.78 KCCU 011255Z AUTO 00000KT 10SM BKN030 BKN034 OVC055 09/06 A3078 RMK AO2
K4BM 9 5 5/3 30.77 K4BM 011255Z AUTO 01009KT 5SM BR OVC024 05/03 A3077 RMK AO2

Station
 
Location
 
Name
 
Wind
Knots
Gust
Knots
Vis
SM
Temp/Dew
C
Baro
inHg
METAR
 
LPB SLLP La Paz / El Alto, BO El Alto International Airport 2 6.21 6/0 30.77 SLLP 011300Z VRB02KT 9999 FEW007 06/M00 Q1042
KC99 5 10 4/0 30.74 KC99 011252Z AUTO 32005KT 10SM BKN040 OVC046 04/00 A3074 RMK AO2
K5SM 0 10 8/6 30.70 K5SM 011254Z AUTO 00000KT 10SM OVC023 08/06 A3070 RMK AO2
KC07 3 10 8/2 30.70 KC07 011315Z AUTO 13003KT 10SM SCT038 OVC048 08/02 A3070 RMK AO2
JUL SPJL Juliaca, PE Inca Manco Capac International Airport 2 6.21 5/-6 30.68 SPJL 011300Z 02002KT CAVOK 05/M06 Q1039 RMK PP000
CUZ SPZO Cusco, PE Alejandro Velasco Astete International Airport 2 6.21 7/0 30.68 SPZO 011300Z 07002KT 9999 SCT050 SCT080 07/00 Q1039 NOSIG RMK BIRD HAZARD RWY 28 PP000
K7BM 6 10 10/7 30.67 K7BM 011255Z AUTO 13006KT 10SM SCT012 OVC024 10/07 A3067 RMK AO2
KVTP 3 0.25 8/8 30.66 KVTP 011255Z AUTO 09003KT M1/4SM +DZ OVC002 08/08 A3066 RMK AO2
SRE SLAL Yamparaez, BO Alcantarí Airport 5 6.21 5/-5 30.65 SLAL 011300Z 09005KT 9999 OVC070 05/M05 Q1038
LXV KLXV Leadville, US Lake County Airport 7 0.75 9/8 30.65 KLXV 011312Z AUTO 19007KT 3/4SM -RA BR BKN003 OVC008 09/09 A3065 RMK AO2 RAB07 P0000 T00940089
SLT KANK Salida, US Salida Airport Harriett Alexander Field 0 10 14/13 30.61 KANK 011315Z AUTO 00000KT 10SM SCT024 BKN029 OVC047 15/13 A3061 RMK AO1 T01460131
KTBX 10 15/7 30.59 KTBX 011255Z AUTO 10SM CLR 15/07 A3059 RMK AO2
TEX KTEX Telluride, US Telluride Regional Airport 4 10 12/9 30.58 KTEX 011255Z AUTO 13004KT 10SM SCT060 BKN080 12/09 A3058 RMK AO2
AXX KAXX Angel Fire, US Angel Fire Airport 0 10 9/9 30.58 KAXX 011315Z AUTO 00000KT 10SM SCT029 BKN045 OVC090 10/09 A3058 RMK AO2 T00950091
KAEJ Buena Vista, US Central Colorado Regional Airport 0 7 12/9 30.57 KAEJ 011315Z AUTO 00000KT 7SM OVC048 13/10 A3057 RMK AO2 T01280099
K33V 0 10 9/5 30.56 K33V 011255Z AUTO 00000KT 10SM OVC075 10/06 A3056 RMK AO2 T00970057
KGNB Granby, US Granby Grand County Airport 0 10 10/6 30.56 KGNB 011255Z AUTO 00000KT 10SM SCT070 OVC090 10/07 A3056 RMK AO2 T01010069
KP60 0 9/9 30.55 KP60 011256Z AUTO 00000KT 09/09 A3055 RMK AO1 SLP284 T00940094
KMNH 3 2.5 13/13 30.54 KMNH 011253Z AUTO 35003KT 2 1/2SM BR SCT008 BKN050 OVC090 13/13 A3054 RMK AO2
SLA SASA Salta, AR Martin Miguel De Guemes International Airport 2 6.21 8/1 30.53 SASA 011300Z 14002KT CAVOK 08/01 Q1034
JUJ SASJ San Salvador de Jujuy, AR Gobernador Horacio Guzman International Airport 5 6.21 15/1 30.53 SASJ 011300Z 27005KT CAVOK 15/01 Q1034
SBBQ Barbacena, BR Major Brigadeiro Doorgal Borges Airport 7 6.21 12/8 30.53 SBBQ 011300Z 11007KT 9999 BKN010 12/08 Q1034
CAM SLCA Camiri, BO Camiri Airport 0 6.21 15/2 30.53 SLCA 011300Z 00000KT 9999 BKN080 15/02 Q1034
K04V 8 10 12/11 30.53 K04V 011253Z AUTO 32008KT 10SM OVC090 12/11 A3053 RMK AO2
KRCV 4 10 12/10 30.53 KRCV 011255Z AUTO 26004KT 10SM OVC110 12/11 A3053 RMK AO2 T01200106
KFLY 3 4 15/13 30.53 KFLY 011315Z AUTO 03003KT 4SM BR OVC050 15/14 A3053 RMK AO2 T01500136
LAR KLAR Laramie, US Laramie Regional Airport 4 3 8/7 30.52 KLAR 011259Z AUTO 21004KT 3SM BR FEW007 08/08 A3052 RMK AO2 T00830078
K20V 0 10 12/9 30.51 K20V 011254Z AUTO 00000KT 10SM BKN060 OVC090 12/09 A3051 RMK AO2
KDUB 0 10 10/7 30.51 KDUB 011255Z AUTO 00000KT 10SM OVC110 10/07 A3051 RMK AO2
GUC KGUC Gunnison, US Gunnison Crested Butte Regional Airport 4 10 12/10 30.51 KGUC 011256Z AUTO 35004KT 10SM OVC100 13/10 A3051 RMK AO2 SLP264 T01280100
AEP SABE Buenos Aires, AR Jorge Newbery Airpark 4 2.8 12/5 30.50 SABE 011300Z 19004KT 120V230 4500 BR NSC 12/05 Q1033 BECMG CAVOK
FDO SADF San Fernando, AR San Fernando Airport 5 1.86 9/6 30.50 SADF 011300Z 18005KT 3000 NSC 09/06 Q1033
EZE SAEZ Buenos Aires, AR Ministro Pistarini International Airport 2 1.86 7/5 30.50 SAEZ 011300Z VRB02KT 3000 BR NSC 07/05 Q1033 NOSIG
TUC SANT San Miguel de Tucumán, AR Teniente Benjamin Matienzo Airport 10 3.73 10/1 30.50 SANT 011300Z 36010KT 6000 NSC 10/01 Q1033
MDQ SAZM Mar del Plata, AR Ástor Piazzola International Airport 4 4.97 5/5 30.50 SAZM 011300Z 19004KT 170V230 8000 OVC004 05/05 Q1033
CBB SLCB Cochabamba, BO Jorge Wilsterman International Airport 3 6.21 13/5 30.50 SLCB 011300Z 35003KT 9999 FEW033 BKN070 13/05 Q1033
AYP SPHO Ayacucho, PE Coronel FAP Alfredo Mendivil Duarte Airport 2 6.21 15/4 30.50 SPHO 011300Z 17002KT 9999 FEW040 BKN090 15/04 Q1033 RMK PP000
PWY KPNA Pinedale, US Ralph Wenz Field 3 10 8/7 30.50 KPNA 011250Z AUTO 29003KT 10SM CLR 08/07 A3050 RMK AO2
ALS KALS Alamosa, US San Luis Valley Regional Bergman Field 3 10 12/12 30.50 KALS 011252Z AUTO 14003KT 10SM OVC080 12/12 A3050 RMK AO2 SLP254 T01220122 $
KFEW 0 5 10/8 30.50 KFEW 011258Z AUTO 00000KT 5SM BR CLR 10/09 A3050 RMK AO2 SLPNO T01010087 $
TLC MMTO Toluca, MX Licenciado Adolfo Lopez Mateos International Airport 3 4 10/9 30.49 MMTO 011247Z 22003KT 4SM SCT070 10/09 A3049 RMK 8/030 HZ SC
ASE KASE Aspen, US Aspen-Pitkin Co/Sardy Field 3 10 12/10 30.49 KASE 011253Z 20003KT 10SM FEW060 BKN080 12/11 A3049 RMK AO2 SLP218 T01220106
PGO KPSO Pagosa Springs, US Stevens Field 3 10 13/10 30.49 KPSO 011255Z AUTO 26003KT 10SM CLR 14/11 A3049 RMK AO2 T01350107
TSM KSKX Taos, US Taos Regional Airport 0 10 12/11 30.49 KSKX 011256Z AUTO 00000KT 10SM OVC080 13/12 A3049 RMK AO2 SLP280 T01280117
KABH 8 9 17/13 30.49 KABH 011258Z AUTO 05008KT 9SM OVC055 17/13 A3049 RMK AO2 SLP258 T01720133